TimeAKDT,TemperatureF,Dew PointF,Humidity,Sea Level PressureIn,VisibilityMPH,Wind Direction,Wind SpeedMPH,Gust SpeedMPH,PrecipitationIn,Events,Conditions,WindDirDegrees,DateUTC
12:00 AM,52.0,50.0,93,29.73,4.0,SSE,10.4,27.6,0.02,Rain,Rain,150,2013-09-11 08:00:00
12:53 AM,53.1,50.0,89,29.73,4.0,ESE,13.8,29.9,0.20,Rain,Heavy Rain,120,2013-09-11 08:53:00
1:24 AM,52.0,48.9,89,29.71,4.0,SE,13.8,28.8,0.11,Rain,Rain,140,2013-09-11 09:24:00
1:36 AM,53.1,48.9,86,29.70,4.0,ESE,13.8,26.5,0.15,Rain,Rain,120,2013-09-11 09:36:00
1:53 AM,52.0,48.9,89,29.71,4.0,SE,16.1,27.6,0.20,Rain,Rain,130,2013-09-11 09:53:00
2:33 AM,52.0,48.9,89,29.68,4.0,SE,12.7,27.6,0.15,Rain,Rain,130,2013-09-11 10:33:00
2:53 AM,54.0,48.0,80,29.68,4.0,ENE,19.6,33.4,0.22,Rain,Rain,70,2013-09-11 10:53:00
3:53 AM,51.1,48.9,92,29.64,4.0,SE,9.2,24.2,0.18,Rain,Rain,140,2013-09-11 11:53:00
4:53 AM,50.0,48.9,96,29.62,4.0,SSE,8.1,19.6,0.15,Rain,Rain,150,2013-09-11 12:53:00
5:53 AM,50.0,48.0,93,29.60,6.0,Variable,5.8,-,0.13,Rain,Rain,0,2013-09-11 13:53:00
6:53 AM,50.0,48.0,93,29.59,6.0,SE,6.9,-,0.08,Rain,Rain,130,2013-09-11 14:53:00
7:53 AM,48.0,46.9,96,29.59,3.0,ENE,6.9,-,0.05,Rain,Light Rain,60,2013-09-11 15:53:00
8:04 AM,48.0,48.0,100,29.59,2.5,Variable,3.5,-,0.01,Rain,Light Rain,0,2013-09-11 16:04:00
8:15 AM,48.9,48.9,100,29.59,2.5,Calm,Calm,-,0.02,Rain,Light Rain,0,2013-09-11 16:15:00
8:51 AM,48.2,48.2,100,29.60,1.2,West,5.8,-,0.07,Rain,Rain,280,2013-09-11 16:51:00
8:53 AM,48.9,48.9,100,29.60,1.2,West,6.9,-,0.08,Rain,Rain,280,2013-09-11 16:53:00
9:29 AM,48.9,48.9,100,29.62,1.8,West,8.1,-,0.15,Rain,Rain,270,2013-09-11 17:29:00
9:39 AM,48.9,48.9,100,29.63,2.0,West,4.6,-,0.18,Rain,Rain,280,2013-09-11 17:39:00
9:53 AM,48.9,48.9,100,29.63,2.5,West,4.6,-,0.22,Rain,Rain,280,2013-09-11 17:53:00
10:05 AM,48.9,48.9,100,29.64,3.0,West,5.8,-,0.02,Rain,Rain,280,2013-09-11 18:05:00
10:53 AM,50.0,50.0,100,29.67,8.0,West,5.8,-,0.08,Rain,Light Rain,270,2013-09-11 18:53:00
11:07 AM,50.0,50.0,100,29.67,6.0,West,6.9,-,0.01,Rain,Light Rain,270,2013-09-11 19:07:00
11:53 AM,50.0,50.0,100,29.71,7.0,WNW,6.9,-,0.02,Rain,Light Rain,290,2013-09-11 19:53:00
12:14 PM,52.0,51.1,97,29.72,10.0,West,5.8,-,0.00,Rain,Light Rain,260,2013-09-11 20:14:00
12:53 PM,53.1,51.1,93,29.74,10.0,Variable,3.5,-,0.00,,Overcast,0,2013-09-11 20:53:00
1:53 PM,51.1,46.0,83,29.77,10.0,East,3.5,-,N/A,,Overcast,80,2013-09-11 21:53:00
2:53 PM,50.0,46.0,86,29.80,10.0,Calm,Calm,-,N/A,,Overcast,0,2013-09-11 22:53:00
3:53 PM,50.0,44.1,80,29.81,10.0,ESE,5.8,-,N/A,,Overcast,110,2013-09-11 23:53:00
4:53 PM,52.0,46.0,80,29.83,10.0,SE,5.8,-,N/A,,Overcast,130,2013-09-12 00:53:00
5:53 PM,55.0,46.9,74,29.84,10.0,ESE,8.1,-,N/A,,Overcast,110,2013-09-12 01:53:00
6:53 PM,54.0,46.9,77,29.86,10.0,Variable,5.8,-,N/A,,Overcast,0,2013-09-12 02:53:00
7:53 PM,53.1,46.9,80,29.88,10.0,SE,9.2,-,N/A,,Overcast,140,2013-09-12 03:53:00
8:53 PM,52.0,46.9,83,29.90,10.0,SE,6.9,-,N/A,,Overcast,130,2013-09-12 04:53:00
9:18 PM,52.0,48.0,86,29.91,10.0,SE,8.1,-,0.00,,Overcast,130,2013-09-12 05:18:00
9:53 PM,50.0,48.0,93,29.93,6.0,ESE,6.9,-,0.00,Rain,Light Rain,110,2013-09-12 05:53:00
10:53 PM,50.0,48.0,93,29.94,10.0,East,4.6,-,0.02,,Overcast,90,2013-09-12 06:53:00
11:11 PM,50.0,48.9,96,29.95,10.0,SE,5.8,-,0.00,Rain,Light Rain,140,2013-09-12 07:11:00
11:31 PM,50.0,48.9,96,29.95,10.0,Variable,3.5,-,0.00,Rain,Light Rain,0,2013-09-12 07:31:00
11:53 PM,51.1,48.9,92,29.96,8.0,SE,5.8,-,0.00,Rain,Light Rain,130,2013-09-12 07:53:00